createdAt,value
2023-03-19T00:09:58.548Z,97040.80
2023-03-19T00:20:01.906Z,97039.73
2023-03-19T00:30:07.376Z,97045.21
2023-03-19T00:40:12.058Z,97042.64
2023-03-19T00:50:16.171Z,97045.30
2023-03-19T01:00:20.794Z,97040.86
2023-03-19T01:10:25.057Z,97039.19
2023-03-19T01:20:28.184Z,97031.26
2023-03-19T01:30:31.745Z,97029.98
2023-03-19T01:40:49.486Z,97033.56
2023-03-19T01:50:55.547Z,97040.29
2023-03-19T02:01:03.462Z,97040.13
2023-03-19T02:11:09.635Z,97039.75
2023-03-19T02:21:18.157Z,97042.55
2023-03-19T02:31:23.316Z,97046.71
2023-03-19T02:41:27.862Z,97044.52
2023-03-19T02:51:31.502Z,97046.94
2023-03-19T03:01:35.674Z,97044.27
2023-03-19T03:11:41.260Z,97046.48
2023-03-19T03:21:45.425Z,97042.59
2023-03-19T03:31:48.546Z,97044.54
2023-03-19T03:41:52.702Z,97052.74
2023-03-19T03:51:56.271Z,97059.05
2023-03-19T04:01:59.599Z,97054.97
2023-03-19T04:12:05.131Z,97071.00
2023-03-19T04:22:08.716Z,97076.16
2023-03-19T04:32:11.919Z,97081.30
2023-03-19T04:42:15.621Z,97083.98
2023-03-19T04:52:31.402Z,97070.93
2023-03-19T05:02:34.925Z,97065.56
2023-03-19T05:12:38.848Z,97068.73
2023-03-19T05:22:42.669Z,97065.44
2023-03-19T05:32:47.779Z,97065.48
2023-03-19T05:43:05.810Z,97054.78
2023-03-19T05:53:09.715Z,97058.75
2023-03-19T06:03:17.804Z,97057.42
2023-03-19T06:13:24.282Z,97051.66
2023-03-19T06:23:34.354Z,97049.46
2023-03-19T06:33:38.802Z,97047.39
2023-03-19T06:43:42.472Z,97053.89
2023-03-19T06:53:45.627Z,97059.52
2023-03-19T07:03:48.948Z,97064.70
2023-03-19T07:13:52.749Z,97058.11
2023-03-19T07:23:56.118Z,97046.40
2023-03-19T07:33:59.164Z,97041.65
2023-03-19T07:44:02.288Z,97038.56
2023-03-19T07:54:05.465Z,97028.86
2023-03-19T08:04:09.080Z,97022.33
2023-03-19T08:14:12.309Z,97012.26
2023-03-19T08:24:15.547Z,97003.69
2023-03-19T08:34:18.577Z,96996.70
2023-03-19T08:44:21.755Z,96991.15
2023-03-19T08:54:24.835Z,96990.14
2023-03-19T09:04:28.704Z,96983.77
2023-03-19T09:14:31.944Z,96988.17
2023-03-19T09:24:35.326Z,96979.75
2023-03-19T09:34:40.093Z,96967.57
2023-03-19T09:44:45.830Z,96959.17
2023-03-19T09:54:53.984Z,96950.07
2023-03-19T10:05:20.432Z,96932.04
2023-03-19T10:15:32.516Z,96931.01
2023-03-19T10:25:41.583Z,96922.58
2023-03-19T10:35:48.890Z,96913.77
2023-03-19T10:45:52.348Z,96894.25
2023-03-19T10:56:03.650Z,96887.20
2023-03-19T11:06:07.845Z,96876.20
2023-03-19T11:16:11.522Z,96861.23
2023-03-19T11:26:19.541Z,96859.50
2023-03-19T11:36:54.686Z,96850.05
2023-03-19T11:47:27.101Z,96835.09
2023-03-19T11:58:09.882Z,96829.41
2023-03-19T12:08:33.944Z,96812.72
2023-03-19T12:18:37.375Z,96809.43
2023-03-19T12:28:59.015Z,96796.91
2023-03-19T12:39:10.688Z,96782.71
2023-03-19T12:49:42.206Z,96770.65
2023-03-19T12:59:59.061Z,96755.21
2023-03-19T13:10:11.557Z,96749.52
2023-03-19T13:20:47.131Z,96737.69
2023-03-19T13:31:19.790Z,96729.45
2023-03-19T13:41:35.095Z,96726.44
2023-03-19T13:51:39.881Z,96718.36
2023-03-19T14:01:47.723Z,96710.40
2023-03-19T14:11:52.226Z,96707.94
2023-03-19T14:21:56.003Z,96702.14
2023-03-19T14:32:07.352Z,96692.09
2023-03-19T14:42:29.622Z,96692.94
2023-03-19T14:52:36.874Z,96700.05
2023-03-19T15:02:44.562Z,96706.27
2023-03-19T15:13:25.984Z,96712.92
2023-03-19T15:23:31.256Z,96706.63
2023-03-19T15:33:41.554Z,96715.66
2023-03-19T15:43:47.527Z,96715.79
2023-03-19T15:53:52.276Z,96726.16
2023-03-19T16:03:57.944Z,96737.48
2023-03-19T16:14:09.587Z,96744.48
2023-03-19T16:24:31.424Z,96765.77
2023-03-19T16:34:43.777Z,96781.08
2023-03-19T16:44:47.860Z,96780.52
2023-03-19T16:54:52.242Z,96782.87
2023-03-19T17:04:56.543Z,96798.83
2023-03-19T17:14:59.748Z,96818.73
2023-03-19T17:25:02.856Z,96820.84
2023-03-19T17:35:15.091Z,96821.69
2023-03-19T17:45:25.301Z,96824.32
2023-03-19T17:55:29.894Z,96833.27
2023-03-19T18:05:33.059Z,96829.11
2023-03-19T18:15:38.128Z,96837.52
2023-03-19T18:25:41.288Z,96842.08
2023-03-19T18:35:45.895Z,96849.02
2023-03-19T18:45:52.985Z,96855.66
2023-03-19T18:55:57.508Z,96864.78
2023-03-19T19:06:00.689Z,96865.19
2023-03-19T19:16:06.061Z,96859.66
2023-03-19T19:26:22.210Z,96866.99
2023-03-19T19:36:25.933Z,96876.56
2023-03-19T19:46:31.885Z,96890.14
2023-03-19T19:56:35.227Z,96891.41
2023-03-19T20:06:38.785Z,96895.89
2023-03-19T20:16:42.176Z,96899.95
2023-03-19T20:26:45.776Z,96896.91
2023-03-19T20:36:48.896Z,96896.27
2023-03-19T20:46:52.604Z,96890.73
2023-03-19T20:56:56.411Z,96890.89
2023-03-19T21:06:59.630Z,96891.20
2023-03-19T21:17:03.854Z,96887.25
2023-03-19T21:27:17.976Z,96892.61
2023-03-19T21:37:21.319Z,96896.73
2023-03-19T21:47:26.135Z,96902.27
2023-03-19T21:57:29.263Z,96906.92
2023-03-19T22:07:32.519Z,96907.94
2023-03-19T22:17:35.773Z,96910.25
2023-03-19T22:27:41.133Z,96911.38
2023-03-19T22:37:44.952Z,96904.03
2023-03-19T22:47:48.212Z,96895.16
2023-03-19T22:57:51.723Z,96891.51
2023-03-19T23:07:55.916Z,96890.57
2023-03-19T23:18:00.187Z,96889.58
2023-03-19T23:28:03.261Z,96897.77
2023-03-19T23:38:07.120Z,96891.90
2023-03-19T23:48:21.954Z,96881.81
2023-03-19T23:58:40.171Z,96879.39
